sensor_id;sensor_type;location;lat;lon;timestamp;P1;durP1;ratioP1;P2;durP2;ratioP2
7517;SDS011;3800;48.922;9.444;2023-03-16T00:02:01;20.07;;;8.40;;
7517;SDS011;3800;48.922;9.444;2023-03-16T00:04:32;9.40;;;8.40;;
7517;SDS011;3800;48.922;9.444;2023-03-16T00:06:59;9.43;;;8.43;;
7517;SDS011;3800;48.922;9.444;2023-03-16T00:09:27;9.77;;;8.13;;
7517;SDS011;3800;48.922;9.444;2023-03-16T00:11:56;13.13;;;8.73;;
7517;SDS011;3800;48.922;9.444;2023-03-16T00:14:23;35.80;;;9.60;;
7517;SDS011;3800;48.922;9.444;2023-03-16T00:16:54;13.73;;;8.30;;
7517;SDS011;3800;48.922;9.444;2023-03-16T00:19:25;10.70;;;8.27;;
7517;SDS011;3800;48.922;9.444;2023-03-16T00:21:54;26.23;;;9.43;;
7517;SDS011;3800;48.922;9.444;2023-03-16T00:24:22;44.47;;;10.27;;
7517;SDS011;3800;48.922;9.444;2023-03-16T00:26:50;24.23;;;10.43;;
7517;SDS011;3800;48.922;9.444;2023-03-16T00:29:17;15.63;;;10.70;;
7517;SDS011;3800;48.922;9.444;2023-03-16T00:31:45;15.40;;;9.73;;
7517;SDS011;3800;48.922;9.444;2023-03-16T00:34:14;11.47;;;9.97;;
7517;SDS011;3800;48.922;9.444;2023-03-16T00:36:42;13.97;;;9.13;;
7517;SDS011;3800;48.922;9.444;2023-03-16T00:39:10;11.13;;;9.07;;
7517;SDS011;3800;48.922;9.444;2023-03-16T00:41:37;11.50;;;9.43;;
7517;SDS011;3800;48.922;9.444;2023-03-16T00:44:08;12.67;;;9.70;;
7517;SDS011;3800;48.922;9.444;2023-03-16T00:46:35;13.47;;;10.13;;
7517;SDS011;3800;48.922;9.444;2023-03-16T00:49:03;19.67;;;10.30;;
7517;SDS011;3800;48.922;9.444;2023-03-16T00:51:31;13.43;;;10.80;;
7517;SDS011;3800;48.922;9.444;2023-03-16T00:53:59;15.97;;;10.40;;
7517;SDS011;3800;48.922;9.444;2023-03-16T00:56:27;18.47;;;10.23;;
7517;SDS011;3800;48.922;9.444;2023-03-16T00:58:55;11.87;;;10.00;;
7517;SDS011;3800;48.922;9.444;2023-03-16T01:01:23;11.77;;;9.47;;
7517;SDS011;3800;48.922;9.444;2023-03-16T01:03:51;10.90;;;8.90;;
7517;SDS011;3800;48.922;9.444;2023-03-16T01:06:19;10.90;;;9.03;;
7517;SDS011;3800;48.922;9.444;2023-03-16T01:08:48;9.60;;;8.60;;
7517;SDS011;3800;48.922;9.444;2023-03-16T01:11:17;10.20;;;9.00;;
7517;SDS011;3800;48.922;9.444;2023-03-16T01:13:46;15.60;;;8.37;;
7517;SDS011;3800;48.922;9.444;2023-03-16T01:16:14;10.87;;;8.63;;
7517;SDS011;3800;48.922;9.444;2023-03-16T01:18:45;15.97;;;7.93;;
7517;SDS011;3800;48.922;9.444;2023-03-16T01:21:13;14.77;;;7.87;;
7517;SDS011;3800;48.922;9.444;2023-03-16T01:23:41;8.53;;;7.60;;
7517;SDS011;3800;48.922;9.444;2023-03-16T01:26:09;8.97;;;7.70;;
7517;SDS011;3800;48.922;9.444;2023-03-16T01:28:37;8.80;;;7.90;;
7517;SDS011;3800;48.922;9.444;2023-03-16T01:31:06;8.20;;;7.23;;
7517;SDS011;3800;48.922;9.444;2023-03-16T01:33:35;8.60;;;7.70;;
7517;SDS011;3800;48.922;9.444;2023-03-16T01:36:04;8.83;;;7.93;;
7517;SDS011;3800;48.922;9.444;2023-03-16T01:38:33;8.53;;;7.63;;
7517;SDS011;3800;48.922;9.444;2023-03-16T01:41:00;8.63;;;7.17;;
7517;SDS011;3800;48.922;9.444;2023-03-16T01:43:29;9.30;;;8.23;;
7517;SDS011;3800;48.922;9.444;2023-03-16T01:46:14;15.13;;;7.03;;
7517;SDS011;3800;48.922;9.444;2023-03-16T01:48:42;9.07;;;8.03;;
7517;SDS011;3800;48.922;9.444;2023-03-16T01:51:18;8.77;;;6.73;;
7517;SDS011;3800;48.922;9.444;2023-03-16T01:54:03;8.70;;;7.47;;
7517;SDS011;3800;48.922;9.444;2023-03-16T01:56:32;15.53;;;7.20;;
7517;SDS011;3800;48.922;9.444;2023-03-16T01:58:57;33.93;;;8.03;;
7517;SDS011;3800;48.922;9.444;2023-03-16T02:01:25;15.13;;;7.50;;
7517;SDS011;3800;48.922;9.444;2023-03-16T02:03:54;32.20;;;7.87;;
7517;SDS011;3800;48.922;9.444;2023-03-16T02:06:21;11.03;;;8.13;;
7517;SDS011;3800;48.922;9.444;2023-03-16T02:08:49;8.80;;;7.90;;
7517;SDS011;3800;48.922;9.444;2023-03-16T02:11:17;10.40;;;8.30;;
7517;SDS011;3800;48.922;9.444;2023-03-16T02:13:45;9.70;;;8.03;;
7517;SDS011;3800;48.922;9.444;2023-03-16T02:16:15;9.33;;;8.30;;
7517;SDS011;3800;48.922;9.444;2023-03-16T02:18:42;10.00;;;8.50;;
7517;SDS011;3800;48.922;9.444;2023-03-16T02:21:13;10.23;;;8.53;;
7517;SDS011;3800;48.922;9.444;2023-03-16T02:23:45;10.33;;;8.60;;
7517;SDS011;3800;48.922;9.444;2023-03-16T02:26:16;8.70;;;7.43;;
7517;SDS011;3800;48.922;9.444;2023-03-16T02:28:52;9.27;;;8.00;;
7517;SDS011;3800;48.922;9.444;2023-03-16T02:31:19;8.60;;;7.37;;
7517;SDS011;3800;48.922;9.444;2023-03-16T02:33:47;9.77;;;8.70;;
7517;SDS011;3800;48.922;9.444;2023-03-16T02:36:15;7.97;;;7.17;;
7517;SDS011;3800;48.922;9.444;2023-03-16T02:38:42;10.53;;;8.00;;
7517;SDS011;3800;48.922;9.444;2023-03-16T02:41:10;9.43;;;8.20;;
7517;SDS011;3800;48.922;9.444;2023-03-16T02:43:39;9.73;;;7.90;;
7517;SDS011;3800;48.922;9.444;2023-03-16T02:46:06;8.40;;;7.50;;
7517;SDS011;3800;48.922;9.444;2023-03-16T02:48:35;7.77;;;6.77;;
7517;SDS011;3800;48.922;9.444;2023-03-16T02:51:02;8.37;;;7.47;;
7517;SDS011;3800;48.922;9.444;2023-03-16T02:53:31;7.70;;;6.90;;
7517;SDS011;3800;48.922;9.444;2023-03-16T02:56:00;8.50;;;7.53;;
7517;SDS011;3800;48.922;9.444;2023-03-16T02:58:28;8.50;;;7.30;;
7517;SDS011;3800;48.922;9.444;2023-03-16T03:00:55;7.57;;;6.77;;
7517;SDS011;3800;48.922;9.444;2023-03-16T03:03:22;8.20;;;7.40;;
7517;SDS011;3800;48.922;9.444;2023-03-16T03:05:50;9.77;;;8.43;;
7517;SDS011;3800;48.922;9.444;2023-03-16T03:08:19;10.93;;;8.33;;
7517;SDS011;3800;48.922;9.444;2023-03-16T03:10:46;8.40;;;7.60;;
7517;SDS011;3800;48.922;9.444;2023-03-16T03:13:14;8.80;;;7.90;;
7517;SDS011;3800;48.922;9.444;2023-03-16T03:15:42;9.00;;;8.10;;
7517;SDS011;3800;48.922;9.444;2023-03-16T03:18:11;9.47;;;8.13;;
7517;SDS011;3800;48.922;9.444;2023-03-16T03:20:38;10.00;;;8.87;;
7517;SDS011;3800;48.922;9.444;2023-03-16T03:23:07;9.53;;;7.97;;
7517;SDS011;3800;48.922;9.444;2023-03-16T03:25:35;9.63;;;8.27;;
7517;SDS011;3800;48.922;9.444;2023-03-16T03:28:05;9.93;;;8.03;;
7517;SDS011;3800;48.922;9.444;2023-03-16T03:30:33;9.97;;;8.50;;
7517;SDS011;3800;48.922;9.444;2023-03-16T03:33:01;9.63;;;8.30;;
7517;SDS011;3800;48.922;9.444;2023-03-16T03:35:28;9.27;;;8.27;;
7517;SDS011;3800;48.922;9.444;2023-03-16T03:37:56;9.80;;;8.80;;
7517;SDS011;3800;48.922;9.444;2023-03-16T03:40:24;10.17;;;8.47;;
7517;SDS011;3800;48.922;9.444;2023-03-16T03:42:52;10.27;;;8.33;;
7517;SDS011;3800;48.922;9.444;2023-03-16T03:45:20;11.50;;;9.00;;
7517;SDS011;3800;48.922;9.444;2023-03-16T03:47:48;12.93;;;9.57;;
7517;SDS011;3800;48.922;9.444;2023-03-16T03:50:16;11.67;;;9.67;;
7517;SDS011;3800;48.922;9.444;2023-03-16T03:52:44;12.73;;;10.87;;
7517;SDS011;3800;48.922;9.444;2023-03-16T03:55:14;14.27;;;11.47;;
7517;SDS011;3800;48.922;9.444;2023-03-16T03:57:41;15.03;;;12.50;;
7517;SDS011;3800;48.922;9.444;2023-03-16T04:00:10;16.70;;;11.93;;
7517;SDS011;3800;48.922;9.444;2023-03-16T04:02:38;14.77;;;11.70;;
7517;SDS011;3800;48.922;9.444;2023-03-16T04:05:07;15.70;;;11.93;;
7517;SDS011;3800;48.922;9.444;2023-03-16T04:07:36;14.63;;;12.20;;
7517;SDS011;3800;48.922;9.444;2023-03-16T04:10:04;15.03;;;11.70;;
7517;SDS011;3800;48.922;9.444;2023-03-16T04:12:32;18.23;;;13.00;;
7517;SDS011;3800;48.922;9.444;2023-03-16T04:15:01;17.93;;;11.87;;
7517;SDS011;3800;48.922;9.444;2023-03-16T04:17:28;12.77;;;11.33;;
7517;SDS011;3800;48.922;9.444;2023-03-16T04:19:55;12.80;;;10.67;;
7517;SDS011;3800;48.922;9.444;2023-03-16T04:22:23;14.20;;;11.67;;
7517;SDS011;3800;48.922;9.444;2023-03-16T04:24:51;15.90;;;11.73;;
7517;SDS011;3800;48.922;9.444;2023-03-16T04:27:18;15.40;;;10.67;;
7517;SDS011;3800;48.922;9.444;2023-03-16T04:29:46;14.60;;;11.27;;
7517;SDS011;3800;48.922;9.444;2023-03-16T04:32:15;14.00;;;10.80;;
7517;SDS011;3800;48.922;9.444;2023-03-16T04:34:42;13.53;;;11.03;;
7517;SDS011;3800;48.922;9.444;2023-03-16T04:37:10;15.60;;;11.97;;
7517;SDS011;3800;48.922;9.444;2023-03-16T04:39:38;14.57;;;11.40;;
7517;SDS011;3800;48.922;9.444;2023-03-16T04:42:07;13.50;;;11.17;;
7517;SDS011;3800;48.922;9.444;2023-03-16T04:44:35;12.73;;;10.23;;
7517;SDS011;3800;48.922;9.444;2023-03-16T04:47:02;13.67;;;11.00;;
7517;SDS011;3800;48.922;9.444;2023-03-16T04:49:30;13.83;;;9.97;;
7517;SDS011;3800;48.922;9.444;2023-03-16T04:51:58;14.33;;;10.17;;
7517;SDS011;3800;48.922;9.444;2023-03-16T04:54:26;14.10;;;9.87;;
7517;SDS011;3800;48.922;9.444;2023-03-16T04:56:53;13.13;;;11.13;;
7517;SDS011;3800;48.922;9.444;2023-03-16T04:59:21;12.37;;;10.13;;
7517;SDS011;3800;48.922;9.444;2023-03-16T05:01:49;13.53;;;10.37;;
7517;SDS011;3800;48.922;9.444;2023-03-16T05:04:17;11.03;;;9.83;;
7517;SDS011;3800;48.922;9.444;2023-03-16T05:06:44;12.93;;;10.67;;
7517;SDS011;3800;48.922;9.444;2023-03-16T05:09:13;11.43;;;9.87;;
7517;SDS011;3800;48.922;9.444;2023-03-16T05:11:40;11.53;;;9.77;;
7517;SDS011;3800;48.922;9.444;2023-03-16T05:14:08;10.83;;;9.30;;
7517;SDS011;3800;48.922;9.444;2023-03-16T05:16:36;11.37;;;9.73;;
7517;SDS011;3800;48.922;9.444;2023-03-16T05:19:04;11.63;;;9.87;;
7517;SDS011;3800;48.922;9.444;2023-03-16T05:21:32;12.83;;;8.63;;
7517;SDS011;3800;48.922;9.444;2023-03-16T05:23:59;11.80;;;8.83;;
7517;SDS011;3800;48.922;9.444;2023-03-16T05:26:27;10.67;;;8.87;;
7517;SDS011;3800;48.922;9.444;2023-03-16T05:28:55;10.57;;;8.83;;
7517;SDS011;3800;48.922;9.444;2023-03-16T05:31:23;12.47;;;9.53;;
7517;SDS011;3800;48.922;9.444;2023-03-16T05:33:50;11.47;;;9.53;;
7517;SDS011;3800;48.922;9.444;2023-03-16T05:36:19;12.47;;;8.37;;
7517;SDS011;3800;48.922;9.444;2023-03-16T05:38:47;9.67;;;8.67;;
7517;SDS011;3800;48.922;9.444;2023-03-16T05:41:15;10.03;;;8.63;;
7517;SDS011;3800;48.922;9.444;2023-03-16T05:43:43;9.80;;;7.97;;
7517;SDS011;3800;48.922;9.444;2023-03-16T05:46:12;9.07;;;8.07;;
7517;SDS011;3800;48.922;9.444;2023-03-16T05:48:40;11.27;;;8.40;;
7517;SDS011;3800;48.922;9.444;2023-03-16T05:51:08;10.30;;;8.90;;
7517;SDS011;3800;48.922;9.444;2023-03-16T05:53:35;9.47;;;8.47;;
7517;SDS011;3800;48.922;9.444;2023-03-16T05:56:03;11.07;;;8.90;;
7517;SDS011;3800;48.922;9.444;2023-03-16T05:58:33;10.50;;;8.57;;
7517;SDS011;3800;48.922;9.444;2023-03-16T06:01:01;9.90;;;8.90;;
7517;SDS011;3800;48.922;9.444;2023-03-16T06:03:29;12.10;;;8.53;;
7517;SDS011;3800;48.922;9.444;2023-03-16T06:05:56;9.07;;;8.07;;
7517;SDS011;3800;48.922;9.444;2023-03-16T06:08:24;9.13;;;8.23;;
7517;SDS011;3800;48.922;9.444;2023-03-16T06:10:53;10.63;;;8.73;;
7517;SDS011;3800;48.922;9.444;2023-03-16T06:13:21;9.77;;;8.23;;
7517;SDS011;3800;48.922;9.444;2023-03-16T06:15:49;10.47;;;8.40;;
7517;SDS011;3800;48.922;9.444;2023-03-16T06:18:17;10.30;;;8.30;;
7517;SDS011;3800;48.922;9.444;2023-03-16T06:20:46;9.70;;;8.63;;
7517;SDS011;3800;48.922;9.444;2023-03-16T06:23:15;10.03;;;8.00;;
7517;SDS011;3800;48.922;9.444;2023-03-16T06:25:45;10.10;;;8.27;;
7517;SDS011;3800;48.922;9.444;2023-03-16T06:28:12;9.60;;;8.37;;
7517;SDS011;3800;48.922;9.444;2023-03-16T06:30:40;13.00;;;8.60;;
7517;SDS011;3800;48.922;9.444;2023-03-16T06:33:08;9.13;;;8.23;;
7517;SDS011;3800;48.922;9.444;2023-03-16T06:35:37;10.67;;;8.90;;
7517;SDS011;3800;48.922;9.444;2023-03-16T06:38:06;9.80;;;8.60;;
7517;SDS011;3800;48.922;9.444;2023-03-16T06:40:34;11.07;;;9.00;;
7517;SDS011;3800;48.922;9.444;2023-03-16T06:43:02;9.23;;;8.27;;
7517;SDS011;3800;48.922;9.444;2023-03-16T06:45:30;10.77;;;8.73;;
7517;SDS011;3800;48.922;9.444;2023-03-16T06:47:59;11.50;;;9.60;;
7517;SDS011;3800;48.922;9.444;2023-03-16T06:50:26;10.60;;;8.87;;
7517;SDS011;3800;48.922;9.444;2023-03-16T06:52:54;11.23;;;9.27;;
7517;SDS011;3800;48.922;9.444;2023-03-16T06:55:22;9.87;;;8.87;;
7517;SDS011;3800;48.922;9.444;2023-03-16T06:57:51;11.00;;;9.63;;
7517;SDS011;3800;48.922;9.444;2023-03-16T07:00:19;10.70;;;9.10;;
7517;SDS011;3800;48.922;9.444;2023-03-16T07:02:46;13.17;;;9.07;;
7517;SDS011;3800;48.922;9.444;2023-03-16T07:05:14;10.37;;;9.07;;
7517;SDS011;3800;48.922;9.444;2023-03-16T07:07:42;10.87;;;9.67;;
7517;SDS011;3800;48.922;9.444;2023-03-16T07:10:12;13.23;;;9.80;;
7517;SDS011;3800;48.922;9.444;2023-03-16T07:12:39;10.70;;;9.60;;
7517;SDS011;3800;48.922;9.444;2023-03-16T07:15:06;13.03;;;10.87;;
7517;SDS011;3800;48.922;9.444;2023-03-16T07:17:35;15.60;;;10.53;;
7517;SDS011;3800;48.922;9.444;2023-03-16T07:20:03;12.20;;;10.33;;
7517;SDS011;3800;48.922;9.444;2023-03-16T07:22:31;13.80;;;10.07;;
7517;SDS011;3800;48.922;9.444;2023-03-16T07:24:58;15.93;;;11.23;;
7517;SDS011;3800;48.922;9.444;2023-03-16T07:27:27;13.53;;;11.23;;
7517;SDS011;3800;48.922;9.444;2023-03-16T07:29:54;12.97;;;10.80;;
7517;SDS011;3800;48.922;9.444;2023-03-16T07:32:26;14.03;;;11.00;;
7517;SDS011;3800;48.922;9.444;2023-03-16T07:34:53;15.47;;;11.43;;
7517;SDS011;3800;48.922;9.444;2023-03-16T07:37:21;12.47;;;10.27;;
7517;SDS011;3800;48.922;9.444;2023-03-16T07:39:49;13.00;;;10.57;;
7517;SDS011;3800;48.922;9.444;2023-03-16T07:42:18;14.60;;;10.80;;
7517;SDS011;3800;48.922;9.444;2023-03-16T07:44:47;13.10;;;10.60;;
7517;SDS011;3800;48.922;9.444;2023-03-16T07:47:15;12.67;;;11.17;;
7517;SDS011;3800;48.922;9.444;2023-03-16T07:49:42;16.83;;;11.60;;
7517;SDS011;3800;48.922;9.444;2023-03-16T07:52:12;24.73;;;11.63;;
7517;SDS011;3800;48.922;9.444;2023-03-16T07:54:41;14.13;;;10.20;;
7517;SDS011;3800;48.922;9.444;2023-03-16T07:57:09;18.43;;;11.50;;
7517;SDS011;3800;48.922;9.444;2023-03-16T07:59:37;14.17;;;10.53;;
7517;SDS011;3800;48.922;9.444;2023-03-16T08:02:05;11.70;;;9.90;;
7517;SDS011;3800;48.922;9.444;2023-03-16T08:04:33;15.23;;;11.13;;
7517;SDS011;3800;48.922;9.444;2023-03-16T08:07:01;12.10;;;10.43;;
7517;SDS011;3800;48.922;9.444;2023-03-16T08:09:30;12.03;;;10.30;;
7517;SDS011;3800;48.922;9.444;2023-03-16T08:11:58;13.87;;;10.73;;
7517;SDS011;3800;48.922;9.444;2023-03-16T08:14:26;15.73;;;10.57;;
7517;SDS011;3800;48.922;9.444;2023-03-16T08:16:53;11.90;;;10.00;;
7517;SDS011;3800;48.922;9.444;2023-03-16T08:19:22;12.47;;;9.63;;
7517;SDS011;3800;48.922;9.444;2023-03-16T08:21:49;12.67;;;9.97;;
7517;SDS011;3800;48.922;9.444;2023-03-16T08:24:17;10.23;;;8.63;;
7517;SDS011;3800;48.922;9.444;2023-03-16T08:26:45;10.53;;;9.43;;
7517;SDS011;3800;48.922;9.444;2023-03-16T08:29:13;11.03;;;9.93;;
7517;SDS011;3800;48.922;9.444;2023-03-16T08:31:41;9.90;;;8.73;;
7517;SDS011;3800;48.922;9.444;2023-03-16T08:34:09;9.93;;;8.63;;
7517;SDS011;3800;48.922;9.444;2023-03-16T08:36:37;8.83;;;7.93;;
7517;SDS011;3800;48.922;9.444;2023-03-16T08:39:04;11.17;;;9.07;;
7517;SDS011;3800;48.922;9.444;2023-03-16T08:41:32;9.23;;;8.00;;
7517;SDS011;3800;48.922;9.444;2023-03-16T08:44:00;9.13;;;8.10;;
7517;SDS011;3800;48.922;9.444;2023-03-16T08:46:27;9.63;;;8.63;;
7517;SDS011;3800;48.922;9.444;2023-03-16T08:48:56;10.23;;;8.13;;
7517;SDS011;3800;48.922;9.444;2023-03-16T08:51:24;8.90;;;7.93;;
7517;SDS011;3800;48.922;9.444;2023-03-16T08:53:51;10.90;;;7.97;;
7517;SDS011;3800;48.922;9.444;2023-03-16T08:56:19;8.57;;;7.60;;
7517;SDS011;3800;48.922;9.444;2023-03-16T08:58:47;10.63;;;8.17;;
7517;SDS011;3800;48.922;9.444;2023-03-16T09:01:15;8.33;;;7.07;;
7517;SDS011;3800;48.922;9.444;2023-03-16T09:03:43;7.50;;;6.70;;
7517;SDS011;3800;48.922;9.444;2023-03-16T09:06:13;7.93;;;7.10;;
7517;SDS011;3800;48.922;9.444;2023-03-16T09:08:41;8.93;;;6.97;;
7517;SDS011;3800;48.922;9.444;2023-03-16T09:11:10;9.30;;;7.20;;
7517;SDS011;3800;48.922;9.444;2023-03-16T09:13:37;8.00;;;7.00;;
7517;SDS011;3800;48.922;9.444;2023-03-16T09:16:05;8.60;;;6.47;;
7517;SDS011;3800;48.922;9.444;2023-03-16T09:18:34;7.40;;;6.47;;
7517;SDS011;3800;48.922;9.444;2023-03-16T09:21:03;8.30;;;6.80;;
7517;SDS011;3800;48.922;9.444;2023-03-16T09:23:30;6.87;;;6.17;;
7517;SDS011;3800;48.922;9.444;2023-03-16T09:25:58;7.57;;;6.00;;
7517;SDS011;3800;48.922;9.444;2023-03-16T09:28:27;9.03;;;5.93;;
7517;SDS011;3800;48.922;9.444;2023-03-16T09:30:54;9.80;;;6.13;;
7517;SDS011;3800;48.922;9.444;2023-03-16T09:33:22;8.93;;;6.30;;
7517;SDS011;3800;48.922;9.444;2023-03-16T09:35:49;5.40;;;4.80;;
7517;SDS011;3800;48.922;9.444;2023-03-16T09:38:18;5.00;;;4.50;;
7517;SDS011;3800;48.922;9.444;2023-03-16T09:40:46;6.73;;;5.20;;
7517;SDS011;3800;48.922;9.444;2023-03-16T09:43:19;5.20;;;4.70;;
7517;SDS011;3800;48.922;9.444;2023-03-16T09:45:51;7.90;;;5.63;;
7517;SDS011;3800;48.922;9.444;2023-03-16T09:48:16;4.77;;;4.37;;
7517;SDS011;3800;48.922;9.444;2023-03-16T09:50:44;7.40;;;5.53;;
7517;SDS011;3800;48.922;9.444;2023-03-16T09:53:15;6.83;;;5.40;;
7517;SDS011;3800;48.922;9.444;2023-03-16T09:55:48;7.90;;;4.93;;
7517;SDS011;3800;48.922;9.444;2023-03-16T09:58:15;6.37;;;5.10;;
7517;SDS011;3800;48.922;9.444;2023-03-16T10:00:50;11.83;;;5.80;;
7517;SDS011;3800;48.922;9.444;2023-03-16T10:03:17;8.27;;;5.33;;
7517;SDS011;3800;48.922;9.444;2023-03-16T10:05:44;8.40;;;5.13;;
7517;SDS011;3800;48.922;9.444;2023-03-16T10:08:13;5.57;;;4.83;;
7517;SDS011;3800;48.922;9.444;2023-03-16T10:10:59;6.20;;;4.70;;
7517;SDS011;3800;48.922;9.444;2023-03-16T10:13:30;5.57;;;5.03;;
7517;SDS011;3800;48.922;9.444;2023-03-16T10:16:02;7.30;;;4.73;;
7517;SDS011;3800;48.922;9.444;2023-03-16T10:18:30;6.73;;;4.90;;
7517;SDS011;3800;48.922;9.444;2023-03-16T10:20:57;5.73;;;4.30;;
7517;SDS011;3800;48.922;9.444;2023-03-16T10:23:25;6.17;;;5.03;;
7517;SDS011;3800;48.922;9.444;2023-03-16T10:25:54;7.90;;;4.20;;
7517;SDS011;3800;48.922;9.444;2023-03-16T10:28:24;5.20;;;4.20;;
7517;SDS011;3800;48.922;9.444;2023-03-16T10:30:55;4.63;;;3.93;;
7517;SDS011;3800;48.922;9.444;2023-03-16T10:33:23;8.83;;;4.57;;
7517;SDS011;3800;48.922;9.444;2023-03-16T10:38:30;4.47;;;4.03;;
7517;SDS011;3800;48.922;9.444;2023-03-16T10:40:58;5.50;;;4.30;;
7517;SDS011;3800;48.922;9.444;2023-03-16T10:43:25;4.90;;;4.00;;
7517;SDS011;3800;48.922;9.444;2023-03-16T10:45:57;4.87;;;3.90;;
7517;SDS011;3800;48.922;9.444;2023-03-16T10:48:24;4.43;;;3.50;;
7517;SDS011;3800;48.922;9.444;2023-03-16T10:50:56;4.50;;;3.90;;
7517;SDS011;3800;48.922;9.444;2023-03-16T10:53:24;4.67;;;3.77;;
7517;SDS011;3800;48.922;9.444;2023-03-16T10:55:59;4.60;;;3.63;;
7517;SDS011;3800;48.922;9.444;2023-03-16T10:58:29;4.47;;;2.97;;
7517;SDS011;3800;48.922;9.444;2023-03-16T11:00:56;4.50;;;3.67;;
7517;SDS011;3800;48.922;9.444;2023-03-16T11:03:27;3.70;;;3.07;;
7517;SDS011;3800;48.922;9.444;2023-03-16T11:05:56;4.17;;;3.37;;
7517;SDS011;3800;48.922;9.444;2023-03-16T11:08:24;3.97;;;2.90;;
7517;SDS011;3800;48.922;9.444;2023-03-16T11:10:54;3.30;;;3.00;;
7517;SDS011;3800;48.922;9.444;2023-03-16T11:13:21;5.37;;;3.33;;
7517;SDS011;3800;48.922;9.444;2023-03-16T11:15:51;3.40;;;3.00;;
7517;SDS011;3800;48.922;9.444;2023-03-16T11:18:25;3.20;;;2.90;;
7517;SDS011;3800;48.922;9.444;2023-03-16T11:20:59;3.17;;;2.70;;
7517;SDS011;3800;48.922;9.444;2023-03-16T11:23:28;3.77;;;2.93;;
7517;SDS011;3800;48.922;9.444;2023-03-16T11:25:54;4.70;;;3.50;;
7517;SDS011;3800;48.922;9.444;2023-03-16T11:28:37;4.33;;;2.83;;
7517;SDS011;3800;48.922;9.444;2023-03-16T11:33:38;4.93;;;3.00;;
7517;SDS011;3800;48.922;9.444;2023-03-16T11:36:12;4.20;;;3.20;;
7517;SDS011;3800;48.922;9.444;2023-03-16T11:38:58;4.07;;;3.50;;
7517;SDS011;3800;48.922;9.444;2023-03-16T11:41:27;4.80;;;3.43;;
7517;SDS011;3800;48.922;9.444;2023-03-16T11:43:56;5.80;;;3.60;;
7517;SDS011;3800;48.922;9.444;2023-03-16T11:46:31;3.50;;;2.70;;
7517;SDS011;3800;48.922;9.444;2023-03-16T11:51:41;3.83;;;2.40;;
7517;SDS011;3800;48.922;9.444;2023-03-16T11:57:17;3.27;;;2.73;;
7517;SDS011;3800;48.922;9.444;2023-03-16T11:59:50;4.00;;;2.50;;
7517;SDS011;3800;48.922;9.444;2023-03-16T12:02:43;4.00;;;2.67;;
7517;SDS011;3800;48.922;9.444;2023-03-16T12:05:19;3.47;;;2.60;;
7517;SDS011;3800;48.922;9.444;2023-03-16T12:07:50;3.30;;;2.70;;
7517;SDS011;3800;48.922;9.444;2023-03-16T12:10:35;6.20;;;3.00;;
7517;SDS011;3800;48.922;9.444;2023-03-16T12:13:10;2.83;;;2.30;;
7517;SDS011;3800;48.922;9.444;2023-03-16T12:15:41;3.70;;;2.20;;
7517;SDS011;3800;48.922;9.444;2023-03-16T12:18:10;3.43;;;2.23;;
7517;SDS011;3800;48.922;9.444;2023-03-16T12:20:42;2.80;;;2.43;;
7517;SDS011;3800;48.922;9.444;2023-03-16T12:23:09;3.20;;;2.40;;
7517;SDS011;3800;48.922;9.444;2023-03-16T12:25:50;3.57;;;2.30;;
7517;SDS011;3800;48.922;9.444;2023-03-16T12:28:21;3.13;;;2.00;;
7517;SDS011;3800;48.922;9.444;2023-03-16T12:30:54;3.03;;;2.43;;
7517;SDS011;3800;48.922;9.444;2023-03-16T12:33:34;2.17;;;1.97;;
7517;SDS011;3800;48.922;9.444;2023-03-16T12:44:14;2.43;;;2.00;;
7517;SDS011;3800;48.922;9.444;2023-03-16T12:46:44;2.17;;;1.57;;
7517;SDS011;3800;48.922;9.444;2023-03-16T12:49:18;2.87;;;2.07;;
7517;SDS011;3800;48.922;9.444;2023-03-16T12:51:45;2.57;;;2.00;;
7517;SDS011;3800;48.922;9.444;2023-03-16T12:54:21;2.33;;;2.13;;
7517;SDS011;3800;48.922;9.444;2023-03-16T12:56:48;1.80;;;1.60;;
7517;SDS011;3800;48.922;9.444;2023-03-16T12:59:16;3.13;;;1.93;;
7517;SDS011;3800;48.922;9.444;2023-03-16T13:01:43;2.50;;;1.83;;
7517;SDS011;3800;48.922;9.444;2023-03-16T13:04:12;2.13;;;1.80;;
7517;SDS011;3800;48.922;9.444;2023-03-16T13:06:41;2.27;;;1.90;;
7517;SDS011;3800;48.922;9.444;2023-03-16T13:09:06;2.73;;;2.23;;
7517;SDS011;3800;48.922;9.444;2023-03-16T13:11:42;3.30;;;2.00;;
7517;SDS011;3800;48.922;9.444;2023-03-16T13:14:08;2.70;;;2.00;;
7517;SDS011;3800;48.922;9.444;2023-03-16T13:16:37;4.33;;;2.23;;
7517;SDS011;3800;48.922;9.444;2023-03-16T13:21:59;2.20;;;1.97;;
7517;SDS011;3800;48.922;9.444;2023-03-16T13:24:34;2.00;;;1.80;;
7517;SDS011;3800;48.922;9.444;2023-03-16T13:27:21;1.60;;;1.50;;
7517;SDS011;3800;48.922;9.444;2023-03-16T13:29:51;2.97;;;1.97;;
7517;SDS011;3800;48.922;9.444;2023-03-16T13:32:18;2.23;;;2.00;;
7517;SDS011;3800;48.922;9.444;2023-03-16T13:34:47;3.17;;;2.00;;
7517;SDS011;3800;48.922;9.444;2023-03-16T13:37:16;2.20;;;1.80;;
7517;SDS011;3800;48.922;9.444;2023-03-16T13:39:50;2.67;;;2.00;;
7517;SDS011;3800;48.922;9.444;2023-03-16T13:42:15;2.27;;;1.90;;
7517;SDS011;3800;48.922;9.444;2023-03-16T13:44:42;2.10;;;1.70;;
7517;SDS011;3800;48.922;9.444;2023-03-16T13:47:14;2.30;;;1.97;;
7517;SDS011;3800;48.922;9.444;2023-03-16T13:49:42;4.07;;;1.97;;
7517;SDS011;3800;48.922;9.444;2023-03-16T13:52:12;2.47;;;2.10;;
7517;SDS011;3800;48.922;9.444;2023-03-16T13:54:39;3.27;;;2.00;;
7517;SDS011;3800;48.922;9.444;2023-03-16T13:57:08;3.60;;;2.30;;
7517;SDS011;3800;48.922;9.444;2023-03-16T13:59:34;2.90;;;1.90;;
7517;SDS011;3800;48.922;9.444;2023-03-16T14:02:02;3.27;;;2.10;;
7517;SDS011;3800;48.922;9.444;2023-03-16T14:04:31;2.57;;;1.90;;
7517;SDS011;3800;48.922;9.444;2023-03-16T14:06:58;2.40;;;2.10;;
7517;SDS011;3800;48.922;9.444;2023-03-16T14:09:27;3.70;;;2.40;;
7517;SDS011;3800;48.922;9.444;2023-03-16T14:11:54;4.00;;;2.80;;
7517;SDS011;3800;48.922;9.444;2023-03-16T14:14:24;3.30;;;2.40;;
7517;SDS011;3800;48.922;9.444;2023-03-16T14:16:51;3.50;;;2.13;;
7517;SDS011;3800;48.922;9.444;2023-03-16T14:19:21;3.10;;;2.30;;
7517;SDS011;3800;48.922;9.444;2023-03-16T14:21:48;2.50;;;2.27;;
7517;SDS011;3800;48.922;9.444;2023-03-16T14:24:28;3.17;;;2.40;;
7517;SDS011;3800;48.922;9.444;2023-03-16T14:27:41;3.77;;;2.90;;
7517;SDS011;3800;48.922;9.444;2023-03-16T14:29:53;3.93;;;2.83;;
7517;SDS011;3800;48.922;9.444;2023-03-16T14:32:22;2.90;;;2.60;;
7517;SDS011;3800;48.922;9.444;2023-03-16T14:35:09;2.57;;;2.37;;
7517;SDS011;3800;48.922;9.444;2023-03-16T14:37:36;3.33;;;2.43;;
7517;SDS011;3800;48.922;9.444;2023-03-16T14:40:06;4.33;;;2.80;;
7517;SDS011;3800;48.922;9.444;2023-03-16T14:42:33;4.70;;;3.00;;
7517;SDS011;3800;48.922;9.444;2023-03-16T14:45:01;2.97;;;2.70;;
7517;SDS011;3800;48.922;9.444;2023-03-16T14:47:29;8.50;;;3.20;;
7517;SDS011;3800;48.922;9.444;2023-03-16T14:49:57;3.40;;;3.10;;
7517;SDS011;3800;48.922;9.444;2023-03-16T14:52:25;4.07;;;3.40;;
7517;SDS011;3800;48.922;9.444;2023-03-16T14:54:54;3.70;;;3.30;;
7517;SDS011;3800;48.922;9.444;2023-03-16T14:57:21;4.10;;;3.43;;
7517;SDS011;3800;48.922;9.444;2023-03-16T14:59:49;4.13;;;3.50;;
7517;SDS011;3800;48.922;9.444;2023-03-16T15:02:20;5.30;;;3.50;;
7517;SDS011;3800;48.922;9.444;2023-03-16T15:04:47;3.80;;;3.40;;
7517;SDS011;3800;48.922;9.444;2023-03-16T15:07:33;4.80;;;3.90;;
7517;SDS011;3800;48.922;9.444;2023-03-16T15:10:03;4.20;;;3.80;;
7517;SDS011;3800;48.922;9.444;2023-03-16T15:12:29;4.70;;;4.03;;
7517;SDS011;3800;48.922;9.444;2023-03-16T15:14:57;4.87;;;3.57;;
7517;SDS011;3800;48.922;9.444;2023-03-16T15:17:30;4.93;;;3.70;;
7517;SDS011;3800;48.922;9.444;2023-03-16T15:19:57;4.70;;;3.70;;
7517;SDS011;3800;48.922;9.444;2023-03-16T15:22:28;3.90;;;3.60;;
7517;SDS011;3800;48.922;9.444;2023-03-16T15:24:54;4.10;;;3.57;;
7517;SDS011;3800;48.922;9.444;2023-03-16T15:27:25;4.93;;;3.40;;
7517;SDS011;3800;48.922;9.444;2023-03-16T15:29:51;3.90;;;3.60;;
7517;SDS011;3800;48.922;9.444;2023-03-16T15:32:18;4.47;;;3.77;;
7517;SDS011;3800;48.922;9.444;2023-03-16T15:34:46;4.57;;;4.10;;
7517;SDS011;3800;48.922;9.444;2023-03-16T15:37:14;4.47;;;3.47;;
7517;SDS011;3800;48.922;9.444;2023-03-16T15:39:42;3.87;;;3.10;;
7517;SDS011;3800;48.922;9.444;2023-03-16T15:42:13;4.90;;;3.60;;